Terminal Aerodrome Forecast
Issued by NWS Northern Indiana

Home | Current Version | Previous Version | Text Only | Print | Product List | Glossary Off
Versions: 1 2 3 4 5 6 7 8 9 10 11 12 13 14 15

000
FTUS43 KIWX 022339
TAFFWA
TAF
KFWA 022339Z 0300/0324 23014G22KT P6SM SCT140 BKN250
     FM030400 22014KT P6SM SCT050
      TEMPO 0306/0309 5SM TSRA BKN035CB
     FM030900 24010KT P6SM SCT030 BKN060
     FM031400 29010KT P6SM SCT030
     FM031700 30012G20KT P6SM SCT040=

USA.gov is the U.S. government's official web portal to all federal, state and local government web resources and services.